createdAt,value
2022-08-03T00:00:26.282Z,51.07
2022-08-03T00:02:53.023Z,51.03
2022-08-03T00:05:19.662Z,51.84
2022-08-03T00:07:46.092Z,51.94
2022-08-03T00:10:15.150Z,51.50
2022-08-03T00:12:41.582Z,50.95
2022-08-03T00:15:11.485Z,51.16
2022-08-03T00:17:53.241Z,51.89
2022-08-03T00:20:23.317Z,52.85
2022-08-03T00:22:50.019Z,53.55
2022-08-03T00:25:17.504Z,53.87
2022-08-03T00:27:43.939Z,54.22
2022-08-03T00:30:10.662Z,54.61
2022-08-03T00:32:37.133Z,54.78
2022-08-03T00:35:09.160Z,54.97
2022-08-03T00:37:41.300Z,54.75
2022-08-03T00:40:10.804Z,54.77
2022-08-03T00:42:50.925Z,54.74
2022-08-03T00:45:18.700Z,55.46
2022-08-03T00:47:46.074Z,55.82
2022-08-03T00:50:13.453Z,56.21
2022-08-03T00:52:40.578Z,56.06
2022-08-03T00:55:07.393Z,55.24
2022-08-03T00:57:34.088Z,55.66
2022-08-03T01:00:00.918Z,56.16
2022-08-03T01:02:29.025Z,56.23
2022-08-03T01:04:56.387Z,56.60
2022-08-03T01:07:35.798Z,56.26
2022-08-03T01:10:08.635Z,56.80
2022-08-03T01:12:38.024Z,56.79
2022-08-03T01:15:16.018Z,56.94
2022-08-03T01:18:03.347Z,57.59
2022-08-03T01:20:34.113Z,57.55
2022-08-03T01:23:17.969Z,58.14
2022-08-03T01:26:02.737Z,58.34
2022-08-03T01:28:29.344Z,58.65
2022-08-03T01:31:01.438Z,57.94
2022-08-03T01:33:49.938Z,57.15
2022-08-03T01:36:22.012Z,56.55
2022-08-03T01:38:54.064Z,56.28
2022-08-03T01:41:25.070Z,56.49
2022-08-03T01:44:26.828Z,55.43
2022-08-03T01:46:47.767Z,55.08
2022-08-03T01:49:17.343Z,55.26
2022-08-03T01:51:57.864Z,55.63
2022-08-03T01:54:32.762Z,55.78
2022-08-03T01:56:59.765Z,55.69
2022-08-03T01:59:29.129Z,56.30
2022-08-03T02:02:28.106Z,55.95
2022-08-03T02:04:47.037Z,56.06
2022-08-03T02:07:16.192Z,55.42
2022-08-03T02:09:45.285Z,55.42
2022-08-03T02:12:14.042Z,56.28
2022-08-03T02:14:43.485Z,56.28
2022-08-03T02:17:11.130Z,55.89
2022-08-03T02:19:38.751Z,55.92
2022-08-03T02:22:08.410Z,55.87
2022-08-03T02:24:35.050Z,56.74
2022-08-03T02:27:03.419Z,57.15
2022-08-03T02:29:39.262Z,56.76
2022-08-03T02:32:10.573Z,56.46
2022-08-03T02:34:39.116Z,57.24
2022-08-03T02:37:07.063Z,57.83
2022-08-03T02:39:36.720Z,57.95
2022-08-03T02:42:05.507Z,58.16
2022-08-03T02:44:34.317Z,57.78
2022-08-03T02:47:03.933Z,58.37
2022-08-03T02:49:42.633Z,58.39
2022-08-03T02:52:19.797Z,58.22
2022-08-03T02:54:47.682Z,58.55
2022-08-03T02:57:16.130Z,57.59
2022-08-03T02:59:43.808Z,57.45
2022-08-03T03:02:11.068Z,58.18
2022-08-03T03:04:37.890Z,58.69
2022-08-03T03:07:12.840Z,58.21
2022-08-03T03:09:43.130Z,58.78
2022-08-03T03:12:12.502Z,59.26
2022-08-03T03:14:39.828Z,58.49
2022-08-03T03:17:11.300Z,59.31
2022-08-03T03:19:39.770Z,58.91
2022-08-03T03:22:08.588Z,59.62
2022-08-03T03:24:37.117Z,58.97
2022-08-03T03:27:04.369Z,59.30
2022-08-03T03:29:32.702Z,59.84
2022-08-03T03:32:05.664Z,59.74
2022-08-03T03:34:37.167Z,59.74
2022-08-03T03:37:03.832Z,59.95
2022-08-03T03:39:30.578Z,59.91
2022-08-03T03:41:57.776Z,60.24
2022-08-03T03:44:29.071Z,59.73
2022-08-03T03:46:57.820Z,60.46
2022-08-03T03:49:24.846Z,59.14
2022-08-03T03:51:55.087Z,60.43
2022-08-03T03:54:21.649Z,59.81
2022-08-03T03:56:48.234Z,59.51
2022-08-03T03:59:14.753Z,59.94
2022-08-03T04:01:41.342Z,59.39
2022-08-03T04:04:26.284Z,59.48
2022-08-03T04:07:11.218Z,59.54
2022-08-03T04:09:59.804Z,60.51
2022-08-03T04:12:38.366Z,60.20
2022-08-03T04:15:21.883Z,60.39
2022-08-03T04:17:50.544Z,60.18
2022-08-03T04:20:20.091Z,60.62
2022-08-03T04:22:49.659Z,60.10
2022-08-03T04:25:19.410Z,59.99
2022-08-03T04:28:28.303Z,60.02
2022-08-03T04:30:38.721Z,60.21
2022-08-03T04:33:06.845Z,60.24
2022-08-03T04:36:00.891Z,59.35
2022-08-03T04:38:24.854Z,59.36
2022-08-03T04:40:53.129Z,59.54
2022-08-03T04:43:22.180Z,59.17
2022-08-03T04:45:50.965Z,59.34
2022-08-03T04:48:18.378Z,59.88
2022-08-03T04:50:44.885Z,60.72
2022-08-03T04:53:11.456Z,60.32
2022-08-03T04:55:37.938Z,60.22
2022-08-03T04:58:04.779Z,60.39
2022-08-03T05:00:31.329Z,59.74
2022-08-03T05:02:57.866Z,59.57
2022-08-03T05:05:24.388Z,59.24
2022-08-03T05:07:51.182Z,59.62
2022-08-03T05:10:18.210Z,59.91
2022-08-03T05:12:46.126Z,59.67
2022-08-03T05:15:13.164Z,59.16
2022-08-03T05:17:39.711Z,59.29
2022-08-03T05:20:06.827Z,58.77
2022-08-03T05:22:33.370Z,58.73
2022-08-03T05:25:01.513Z,58.46
2022-08-03T05:27:27.946Z,58.55
2022-08-03T05:29:54.450Z,58.36
2022-08-03T05:32:21.383Z,57.93
2022-08-03T05:34:47.987Z,57.43
2022-08-03T05:37:14.479Z,57.11
2022-08-03T05:39:40.982Z,57.19
2022-08-03T05:42:07.528Z,57.14
2022-08-03T05:44:34.155Z,56.51
2022-08-03T05:47:00.597Z,56.21
2022-08-03T05:49:27.146Z,55.68
2022-08-03T05:52:08.497Z,55.39
2022-08-03T05:54:55.476Z,54.53
2022-08-03T05:57:24.795Z,53.33
2022-08-03T05:59:54.668Z,52.44
2022-08-03T06:02:28.368Z,51.39
2022-08-03T06:04:54.804Z,51.02
2022-08-03T06:07:21.281Z,50.68
2022-08-03T06:10:35.079Z,50.10
2022-08-03T06:12:37.236Z,50.29
2022-08-03T06:15:04.891Z,48.79
2022-08-03T06:17:37.126Z,48.29
2022-08-03T06:20:04.395Z,47.00
2022-08-03T06:22:30.844Z,46.83
2022-08-03T06:24:58.637Z,46.03
2022-08-03T06:27:37.385Z,45.34
2022-08-03T06:30:05.118Z,44.47
2022-08-03T06:32:31.625Z,44.07
2022-08-03T06:34:58.059Z,44.33
2022-08-03T06:37:24.618Z,44.05
2022-08-03T06:39:51.060Z,43.29
2022-08-03T06:42:17.716Z,42.51
2022-08-03T06:44:44.531Z,41.74
2022-08-03T06:47:11.363Z,40.50
2022-08-03T06:49:38.248Z,40.10
2022-08-03T06:52:07.045Z,38.95
2022-08-03T06:54:33.817Z,37.46
2022-08-03T06:57:00.350Z,38.53
2022-08-03T07:00:07.774Z,38.16
2022-08-03T07:02:18.933Z,37.54
2022-08-03T07:04:46.316Z,37.47
2022-08-03T07:07:12.752Z,35.29
2022-08-03T07:09:39.197Z,36.37
2022-08-03T07:12:08.384Z,35.32
2022-08-03T07:14:35.053Z,33.72
2022-08-03T07:17:01.648Z,32.27
2022-08-03T07:19:31.312Z,34.02
2022-08-03T07:22:02.251Z,32.36
2022-08-03T07:24:30.925Z,30.36
2022-08-03T07:26:57.521Z,30.18
2022-08-03T07:29:23.971Z,29.46
2022-08-03T07:31:50.441Z,30.53
2022-08-03T07:34:17.055Z,28.27
2022-08-03T07:36:43.522Z,28.05
2022-08-03T07:39:17.528Z,28.04
2022-08-03T07:41:44.697Z,27.88
2022-08-03T07:44:11.146Z,28.40
2022-08-03T07:46:37.649Z,28.24
2022-08-03T07:49:05.081Z,27.47
2022-08-03T07:51:31.589Z,27.70
2022-08-03T07:53:58.102Z,26.34
2022-08-03T07:56:28.184Z,25.34
2022-08-03T07:58:54.990Z,23.84
2022-08-03T08:01:22.418Z,23.51
2022-08-03T08:03:52.706Z,24.81
2022-08-03T08:06:20.842Z,24.17
2022-08-03T08:08:47.637Z,22.43
2022-08-03T08:11:14.234Z,23.12
2022-08-03T08:13:40.751Z,23.78
2022-08-03T08:16:07.386Z,22.73
2022-08-03T08:18:34.494Z,22.79
2022-08-03T08:21:03.190Z,25.96
2022-08-03T08:23:42.479Z,26.01
2022-08-03T08:26:10.977Z,23.28
2022-08-03T08:28:37.439Z,22.54
2022-08-03T08:31:04.018Z,20.65
2022-08-03T08:33:54.348Z,21.13
2022-08-03T08:36:17.620Z,21.51
2022-08-03T08:38:45.310Z,20.92
2022-08-03T08:41:13.315Z,21.60
2022-08-03T08:43:39.777Z,20.61
2022-08-03T08:46:10.045Z,20.24
2022-08-03T08:48:43.887Z,18.37
2022-08-03T08:51:12.032Z,18.78
2022-08-03T08:53:43.105Z,18.99
2022-08-03T08:56:16.171Z,17.80
2022-08-03T08:58:49.104Z,19.55
2022-08-03T09:01:19.240Z,20.21
2022-08-03T09:03:47.149Z,18.81
2022-08-03T09:06:15.008Z,18.31
2022-08-03T09:08:41.497Z,17.50
2022-08-03T09:11:08.197Z,17.37
2022-08-03T09:13:35.408Z,17.33
2022-08-03T09:16:14.748Z,17.63
2022-08-03T09:18:46.449Z,16.73
2022-08-03T09:21:30.658Z,16.56
2022-08-03T09:24:04.275Z,15.59
2022-08-03T09:26:34.479Z,16.73
2022-08-03T09:29:09.708Z,16.71
2022-08-03T09:31:44.194Z,16.11
2022-08-03T09:34:14.239Z,15.44
2022-08-03T09:36:48.863Z,15.59
2022-08-03T09:39:40.695Z,15.17
2022-08-03T09:42:18.721Z,15.40
2022-08-03T09:44:52.180Z,14.93
2022-08-03T09:47:30.309Z,14.61
2022-08-03T09:50:07.178Z,13.63
2022-08-03T09:52:49.483Z,14.45
2022-08-03T09:56:32.729Z,14.81
2022-08-03T09:58:09.167Z,14.20
2022-08-03T10:00:54.044Z,13.37
2022-08-03T10:03:20.817Z,14.26
2022-08-03T10:05:47.325Z,13.97
2022-08-03T10:08:18.623Z,13.63
2022-08-03T10:10:46.864Z,12.82
2022-08-03T10:13:14.409Z,13.47
2022-08-03T10:16:23.955Z,13.47
2022-08-03T10:18:27.833Z,12.66
2022-08-03T10:21:03.237Z,11.98
2022-08-03T10:23:34.628Z,11.16
2022-08-03T10:26:03.769Z,11.71
2022-08-03T10:28:44.991Z,11.55
2022-08-03T10:31:13.829Z,10.67
2022-08-03T10:33:51.060Z,11.79
2022-08-03T10:36:20.842Z,11.38
2022-08-03T10:38:52.769Z,12.14
2022-08-03T10:41:25.998Z,11.69
2022-08-03T10:44:15.705Z,11.89
2022-08-03T10:46:45.122Z,12.82
2022-08-03T10:49:16.158Z,10.99
2022-08-03T10:51:45.089Z,11.68
2022-08-03T10:54:58.541Z,12.00
2022-08-03T10:57:49.694Z,10.46
2022-08-03T11:00:27.346Z,10.67
2022-08-03T11:03:14.735Z,10.97
2022-08-03T11:05:43.225Z,11.55
2022-08-03T11:08:24.669Z,11.01
2022-08-03T11:10:57.526Z,11.15
2022-08-03T11:13:25.875Z,10.67
2022-08-03T11:16:01.579Z,10.52
2022-08-03T11:18:29.281Z,11.40
2022-08-03T11:20:58.214Z,12.10
2022-08-03T11:24:02.934Z,12.29
2022-08-03T11:26:31.081Z,13.20
2022-08-03T11:29:27.941Z,13.92
2022-08-03T11:31:54.418Z,13.41
2022-08-03T11:34:20.936Z,13.53
2022-08-03T11:37:21.364Z,12.71
2022-08-03T11:39:50.471Z,13.22
2022-08-03T11:42:26.988Z,12.86
2022-08-03T11:44:55.311Z,12.53
2022-08-03T11:47:23.246Z,11.89
2022-08-03T11:49:51.422Z,12.20
2022-08-03T11:52:19.516Z,11.33
2022-08-03T11:54:56.521Z,10.19
2022-08-03T11:59:01.305Z,11.59
2022-08-03T12:00:21.581Z,12.05
2022-08-03T12:02:58.890Z,11.95
2022-08-03T12:05:51.880Z,11.97
2022-08-03T12:08:40.139Z,11.30
2022-08-03T12:11:09.093Z,10.51
2022-08-03T12:14:08.838Z,10.25
2022-08-03T12:16:34.021Z,11.13
2022-08-03T12:19:02.409Z,11.03
2022-08-03T12:21:29.849Z,11.37
2022-08-03T12:23:59.993Z,12.09
2022-08-03T12:26:27.407Z,11.73
2022-08-03T12:28:53.913Z,12.54
2022-08-03T12:31:20.544Z,12.56
2022-08-03T12:34:16.639Z,12.12
2022-08-03T12:36:56.040Z,11.86
2022-08-03T12:39:30.795Z,12.91
2022-08-03T12:41:57.692Z,12.88
2022-08-03T12:44:31.859Z,11.98
2022-08-03T12:46:59.276Z,11.98
2022-08-03T12:49:26.377Z,12.18
2022-08-03T12:51:52.782Z,13.54
2022-08-03T12:54:24.512Z,12.62
2022-08-03T12:57:08.083Z,11.77
2022-08-03T12:59:41.316Z,10.83
2022-08-03T13:02:28.700Z,11.18
2022-08-03T13:04:55.655Z,11.43
2022-08-03T13:07:23.086Z,11.29
2022-08-03T13:09:53.145Z,11.46
2022-08-03T13:12:22.551Z,11.68
2022-08-03T13:14:53.077Z,11.80
2022-08-03T13:17:20.129Z,12.78
2022-08-03T13:19:48.136Z,13.23
2022-08-03T13:22:36.173Z,13.47
2022-08-03T13:25:03.128Z,12.08
2022-08-03T13:28:03.978Z,11.29
2022-08-03T13:30:27.558Z,11.46
2022-08-03T13:32:58.603Z,12.10
2022-08-03T13:35:25.429Z,12.25
2022-08-03T13:37:51.932Z,13.12
2022-08-03T13:40:18.545Z,14.02
2022-08-03T13:42:50.321Z,13.49
2022-08-03T13:45:16.836Z,12.19
2022-08-03T13:47:43.311Z,13.11
2022-08-03T13:50:09.797Z,13.39
2022-08-03T13:52:36.402Z,15.05
2022-08-03T13:55:05.735Z,14.04
2022-08-03T13:58:05.035Z,13.84
2022-08-03T14:00:27.117Z,13.13
2022-08-03T14:03:02.926Z,13.16
2022-08-03T14:05:31.890Z,13.63
2022-08-03T14:08:03.849Z,14.05
2022-08-03T14:10:31.832Z,14.14
2022-08-03T14:13:00.295Z,14.33
2022-08-03T14:15:28.476Z,14.83
2022-08-03T14:17:55.817Z,14.00
2022-08-03T14:20:36.870Z,13.17
2022-08-03T14:23:06.805Z,12.88
2022-08-03T14:25:49.865Z,13.27
2022-08-03T14:28:17.883Z,13.62
2022-08-03T14:30:44.459Z,14.95
2022-08-03T14:33:10.901Z,14.91
2022-08-03T14:35:37.470Z,15.23
2022-08-03T14:38:03.912Z,14.28
2022-08-03T14:40:30.349Z,14.48
2022-08-03T14:42:57.228Z,15.04
2022-08-03T14:45:23.798Z,15.26
2022-08-03T14:50:32.449Z,15.11
2022-08-03T14:50:43.295Z,14.49
2022-08-03T14:53:12.337Z,14.84
2022-08-03T14:55:49.863Z,15.32
2022-08-03T14:58:19.766Z,16.22
2022-08-03T15:00:47.371Z,16.51
2022-08-03T15:03:16.719Z,17.23
2022-08-03T15:05:43.648Z,18.03
2022-08-03T15:08:10.104Z,17.66
2022-08-03T15:10:43.821Z,17.65
2022-08-03T15:13:11.502Z,17.66
2022-08-03T15:15:37.994Z,17.49
2022-08-03T15:18:04.750Z,17.48
2022-08-03T15:20:43.197Z,17.96
2022-08-03T15:23:13.424Z,16.62
2022-08-03T15:26:04.144Z,17.35
2022-08-03T15:28:26.610Z,17.35
2022-08-03T15:30:53.228Z,18.33
2022-08-03T15:33:20.220Z,18.85
2022-08-03T15:35:47.534Z,19.15
2022-08-03T15:38:14.128Z,19.89
2022-08-03T15:40:40.762Z,19.92
2022-08-03T15:43:07.429Z,20.47
2022-08-03T15:45:36.337Z,20.53
2022-08-03T15:48:05.746Z,20.23
2022-08-03T15:50:32.262Z,20.47
2022-08-03T15:52:58.846Z,20.77
2022-08-03T15:55:25.506Z,20.92
2022-08-03T15:59:09.623Z,20.42
2022-08-03T16:00:39.209Z,21.13
2022-08-03T16:03:06.030Z,21.69
2022-08-03T16:05:32.496Z,22.16
2022-08-03T16:08:03.786Z,22.88
2022-08-03T16:10:31.628Z,22.57
2022-08-03T16:13:00.915Z,22.22
2022-08-03T16:15:27.682Z,22.11
2022-08-03T16:17:54.302Z,23.37
2022-08-03T16:20:31.152Z,23.19
2022-08-03T16:23:10.589Z,23.91
2022-08-03T16:25:39.827Z,23.42
2022-08-03T16:28:13.172Z,23.78
2022-08-03T16:30:42.564Z,24.27
2022-08-03T16:33:09.550Z,24.39
2022-08-03T16:35:36.125Z,24.61
2022-08-03T16:38:07.846Z,24.19
2022-08-03T16:40:36.803Z,23.52
2022-08-03T16:43:17.966Z,24.55
2022-08-03T16:45:45.683Z,24.73
2022-08-03T16:48:12.154Z,24.58
2022-08-03T16:50:38.804Z,24.27
2022-08-03T16:53:09.816Z,25.29
2022-08-03T16:55:48.570Z,24.61
2022-08-03T16:58:19.511Z,24.83
2022-08-03T17:01:01.684Z,25.34
2022-08-03T17:03:57.052Z,25.75
2022-08-03T17:06:24.795Z,26.05
2022-08-03T17:09:00.605Z,25.32
2022-08-03T17:11:27.116Z,25.61
2022-08-03T17:13:56.421Z,26.24
2022-08-03T17:16:22.938Z,25.75
2022-08-03T17:18:52.961Z,25.85
2022-08-03T17:21:26.886Z,26.22
2022-08-03T17:24:12.125Z,25.04
2022-08-03T17:26:44.584Z,25.13
2022-08-03T17:29:13.358Z,25.00
2022-08-03T17:31:48.953Z,24.78
2022-08-03T17:34:17.278Z,26.06
2022-08-03T17:39:56.846Z,26.22
2022-08-03T17:42:30.214Z,26.01
2022-08-03T17:45:01.993Z,27.59
2022-08-03T17:50:24.210Z,26.26
2022-08-03T17:53:07.020Z,27.32
2022-08-03T17:55:54.915Z,27.43
2022-08-03T17:58:45.724Z,28.25
2022-08-03T18:02:00.501Z,28.58
2022-08-03T18:04:41.710Z,28.36
2022-08-03T18:07:12.518Z,28.20
2022-08-03T18:10:06.197Z,28.46
2022-08-03T18:12:40.170Z,27.93
2022-08-03T18:15:13.302Z,28.51
2022-08-03T18:17:55.683Z,27.75
2022-08-03T18:20:32.936Z,28.74
2022-08-03T18:23:04.921Z,28.87
2022-08-03T18:25:45.543Z,28.82
2022-08-03T18:28:16.571Z,29.79
2022-08-03T18:30:54.144Z,30.12
2022-08-03T18:34:17.195Z,30.71
2022-08-03T18:36:17.710Z,31.60
2022-08-03T18:38:48.016Z,32.32
2022-08-03T18:41:21.983Z,31.40
2022-08-03T18:44:08.566Z,29.64
2022-08-03T18:47:16.467Z,30.87
2022-08-03T18:49:57.352Z,29.89
2022-08-03T18:52:40.184Z,30.26
2022-08-03T18:55:20.655Z,30.18
2022-08-03T18:57:59.607Z,30.39
2022-08-03T19:00:34.239Z,31.11
2022-08-03T19:03:22.536Z,31.01
2022-08-03T19:06:02.660Z,31.67
2022-08-03T19:08:37.258Z,31.79
2022-08-03T19:11:07.701Z,31.61
2022-08-03T19:13:44.405Z,31.70
2022-08-03T19:16:23.531Z,31.98
2022-08-03T19:18:53.850Z,32.43
2022-08-03T19:21:22.338Z,31.82
2022-08-03T19:23:49.206Z,32.03
2022-08-03T19:26:30.856Z,34.15
2022-08-03T19:28:58.611Z,35.21
2022-08-03T19:31:31.149Z,35.79
2022-08-03T19:34:02.583Z,34.88
2022-08-03T19:36:29.549Z,34.00
2022-08-03T19:38:57.531Z,34.23
2022-08-03T19:41:42.262Z,35.60
2022-08-03T19:44:20.250Z,35.75
2022-08-03T19:46:53.431Z,36.59
2022-08-03T19:49:25.985Z,36.34
2022-08-03T19:52:14.812Z,36.46
2022-08-03T19:54:53.989Z,36.77
2022-08-03T19:57:24.865Z,37.24
2022-08-03T19:59:53.312Z,37.50
2022-08-03T20:02:26.222Z,37.13
2022-08-03T20:04:57.168Z,37.31
2022-08-03T20:07:25.885Z,37.10
2022-08-03T20:09:54.535Z,36.99
2022-08-03T20:12:27.539Z,37.30
2022-08-03T20:14:57.341Z,38.06
2022-08-03T20:17:57.103Z,37.75
2022-08-03T20:20:10.745Z,38.70
2022-08-03T20:22:43.086Z,38.95
2022-08-03T20:25:13.070Z,39.12
2022-08-03T20:28:07.167Z,40.27
2022-08-03T20:30:34.645Z,40.71
2022-08-03T20:33:01.637Z,39.94
2022-08-03T20:35:28.742Z,40.30
2022-08-03T20:37:55.430Z,40.18
2022-08-03T20:40:22.916Z,39.95
2022-08-03T20:42:55.149Z,40.36
2022-08-03T20:45:59.416Z,40.44
2022-08-03T20:48:10.094Z,40.95
2022-08-03T20:50:38.353Z,40.39
2022-08-03T20:53:07.035Z,40.81
2022-08-03T20:55:47.499Z,40.75
2022-08-03T20:58:20.772Z,39.03
2022-08-03T21:00:51.616Z,39.03
2022-08-03T21:03:18.645Z,39.65
2022-08-03T21:05:51.813Z,38.87
2022-08-03T21:08:22.533Z,39.08
2022-08-03T21:10:51.081Z,38.52
2022-08-03T21:13:04.438Z,27.15
2022-08-03T21:13:27.144Z,39.41
2022-08-03T21:16:14.309Z,38.69
2022-08-03T21:18:48.909Z,38.85
2022-08-03T21:21:18.944Z,38.61
2022-08-03T21:23:49.927Z,39.58
2022-08-03T21:26:21.821Z,39.26
2022-08-03T21:28:49.809Z,39.29
2022-08-03T21:31:24.723Z,40.13
2022-08-03T21:34:04.959Z,40.10
2022-08-03T21:36:34.410Z,39.99
2022-08-03T21:39:02.403Z,40.59
2022-08-03T21:41:31.304Z,41.42
2022-08-03T21:43:58.905Z,42.08
2022-08-03T21:46:29.579Z,41.91
2022-08-03T21:49:52.148Z,41.80
2022-08-03T21:51:50.389Z,41.28
2022-08-03T21:54:20.046Z,41.68
2022-08-03T21:56:50.632Z,41.34
2022-08-03T21:59:19.044Z,41.82
2022-08-03T22:01:49.093Z,41.96
2022-08-03T22:04:49.992Z,42.71
2022-08-03T22:07:07.766Z,43.53
2022-08-03T22:09:35.326Z,43.38
2022-08-03T22:12:01.849Z,43.06
2022-08-03T22:14:29.081Z,43.49
2022-08-03T22:16:56.290Z,44.55
2022-08-03T22:19:22.758Z,45.14
2022-08-03T22:21:49.846Z,45.23
2022-08-03T22:24:19.706Z,45.72
2022-08-03T22:27:09.838Z,44.72
2022-08-03T22:29:39.722Z,45.59
2022-08-03T22:32:06.877Z,44.71
2022-08-03T22:34:33.661Z,43.73
2022-08-03T22:37:03.650Z,42.69
2022-08-03T22:39:31.731Z,41.74
2022-08-03T22:41:59.015Z,41.70
2022-08-03T22:44:27.484Z,43.11
2022-08-03T22:46:54.389Z,43.29
2022-08-03T22:49:22.153Z,44.13
2022-08-03T22:51:51.886Z,45.85
2022-08-03T22:54:19.003Z,46.77
2022-08-03T22:56:50.255Z,47.61
2022-08-03T22:59:40.145Z,47.38
2022-08-03T23:02:19.997Z,47.71
2022-08-03T23:05:01.907Z,47.10
2022-08-03T23:07:39.207Z,45.95
2022-08-03T23:10:11.370Z,45.18
2022-08-03T23:12:39.741Z,44.63
2022-08-03T23:15:12.747Z,44.01
2022-08-03T23:17:58.152Z,43.51
2022-08-03T23:20:26.437Z,43.34
2022-08-03T23:22:54.648Z,43.09
2022-08-03T23:25:22.045Z,43.85
2022-08-03T23:28:05.559Z,43.40
2022-08-03T23:30:34.568Z,43.58
2022-08-03T23:33:02.878Z,43.54
2022-08-03T23:36:22.582Z,43.46
2022-08-03T23:38:36.636Z,43.55
2022-08-03T23:41:04.705Z,43.78
2022-08-03T23:43:44.682Z,44.32
2022-08-03T23:46:19.704Z,45.38
2022-08-03T23:48:46.266Z,45.54
2022-08-03T23:51:54.323Z,45.78
2022-08-03T23:54:29.489Z,45.32
2022-08-03T23:57:13.179Z,44.35
2022-08-03T23:59:56.671Z,45.10
